createdAt,value
2023-01-01T00:00:22.969Z,3.60
2023-01-01T00:04:17.129Z,4.10
2023-01-01T00:08:04.176Z,7.47
2023-01-01T00:11:46.790Z,6.67
2023-01-01T00:15:29.057Z,2.87
2023-01-01T00:19:12.445Z,2.87
2023-01-01T00:22:56.979Z,2.97
2023-01-01T00:26:42.070Z,3.83
2023-01-01T00:30:26.156Z,3.13
2023-01-01T00:34:10.842Z,4.13
2023-01-01T00:37:56.097Z,3.13
2023-01-01T00:41:38.224Z,3.90
2023-01-01T00:45:22.739Z,5.03
2023-01-01T00:49:05.019Z,3.87
2023-01-01T00:52:47.162Z,3.13
2023-01-01T00:56:29.261Z,3.10
2023-01-01T01:00:30.103Z,4.00
2023-01-01T01:04:13.476Z,3.40
2023-01-01T01:07:55.681Z,4.10
2023-01-01T01:11:41.873Z,4.17
2023-01-01T01:15:26.024Z,4.55
2023-01-01T01:19:12.359Z,4.83
2023-01-01T01:22:54.330Z,3.95
2023-01-01T01:26:37.069Z,5.47
2023-01-01T01:30:19.193Z,4.97
2023-01-01T01:34:02.058Z,3.37
2023-01-01T01:37:44.099Z,3.43
2023-01-01T01:41:28.901Z,3.43
2023-01-01T01:45:12.889Z,4.00
2023-01-01T01:48:59.191Z,4.20
2023-01-01T01:52:48.410Z,4.38
2023-01-01T01:56:42.756Z,4.83
2023-01-01T02:00:24.900Z,5.00
2023-01-01T02:04:09.453Z,4.73
2023-01-01T02:07:52.829Z,3.87
2023-01-01T02:11:37.552Z,5.07
2023-01-01T02:15:20.508Z,5.00
2023-01-01T02:19:26.893Z,4.03
2023-01-01T02:23:28.900Z,4.30
2023-01-01T02:27:34.239Z,3.77
2023-01-01T02:31:24.247Z,4.60
2023-01-01T02:35:32.897Z,5.17
2023-01-01T02:39:17.084Z,4.47
2023-01-01T02:43:00.271Z,4.03
2023-01-01T02:46:42.460Z,4.47
2023-01-01T02:50:28.100Z,5.33
2023-01-01T02:54:32.599Z,4.07
2023-01-01T02:58:46.983Z,5.00
2023-01-01T03:02:55.041Z,4.70
2023-01-01T03:06:56.041Z,4.40
2023-01-01T03:10:43.963Z,4.20
2023-01-01T03:14:25.887Z,4.33
2023-01-01T03:18:33.684Z,4.57
2023-01-01T03:22:21.908Z,4.03
2023-01-01T03:26:10.129Z,3.80
2023-01-01T03:29:55.860Z,4.67
2023-01-01T03:33:47.939Z,3.97
2023-01-01T03:37:32.228Z,4.43
2023-01-01T03:41:58.814Z,4.57
2023-01-01T03:45:46.404Z,3.57
2023-01-01T03:49:30.917Z,3.03
2023-01-01T03:53:38.965Z,2.30
2023-01-01T03:57:42.393Z,1.77
2023-01-01T04:01:27.430Z,2.47
2023-01-01T04:05:11.300Z,1.73
2023-01-01T04:08:58.819Z,0.90
2023-01-01T04:12:40.809Z,0.93
2023-01-01T04:16:23.027Z,1.00
2023-01-01T04:20:06.116Z,1.00
2023-01-01T04:23:48.218Z,1.40
2023-01-01T04:27:30.284Z,1.40
2023-01-01T04:31:13.108Z,1.13
2023-01-01T04:34:55.159Z,1.03
2023-01-01T04:38:38.025Z,1.00
2023-01-01T04:42:20.304Z,1.03
2023-01-01T04:46:04.567Z,1.40
2023-01-01T04:49:46.748Z,1.13
2023-01-01T04:53:35.263Z,1.10
2023-01-01T04:57:17.496Z,1.20
2023-01-01T05:00:59.769Z,1.40
2023-01-01T05:04:42.939Z,1.50
2023-01-01T05:08:24.866Z,1.20
2023-01-01T05:12:07.331Z,1.53
2023-01-01T05:15:49.472Z,1.60
2023-01-01T05:19:31.568Z,1.63
2023-01-01T05:23:15.447Z,3.23
2023-01-01T05:26:57.791Z,3.50
2023-01-01T05:30:40.993Z,3.73
2023-01-01T05:34:22.997Z,4.67
2023-01-01T05:38:04.966Z,4.50
2023-01-01T05:41:46.942Z,4.50
2023-01-01T05:45:29.044Z,3.63
2023-01-01T05:49:12.065Z,3.73
2023-01-01T05:52:54.090Z,4.43
2023-01-01T05:56:36.766Z,5.60
2023-01-01T06:00:19.042Z,6.40
2023-01-01T06:04:01.186Z,5.50
2023-01-01T06:07:48.188Z,4.83
2023-01-01T06:11:32.058Z,4.27
2023-01-01T06:15:14.253Z,1.60
2023-01-01T06:18:59.476Z,2.43
2023-01-01T06:22:41.755Z,2.13
2023-01-01T06:26:26.022Z,2.27
2023-01-01T06:30:09.255Z,2.20
2023-01-01T06:33:51.654Z,3.03
2023-01-01T06:37:33.856Z,2.80
2023-01-01T06:41:21.373Z,2.40
2023-01-01T06:45:03.831Z,3.10
2023-01-01T06:48:47.904Z,3.00
2023-01-01T06:52:31.996Z,3.17
2023-01-01T06:56:15.057Z,3.37
2023-01-01T06:59:57.177Z,3.00
2023-01-01T07:03:40.681Z,2.47
2023-01-01T07:07:23.806Z,3.27
2023-01-01T07:11:05.800Z,2.70
2023-01-01T07:14:47.676Z,3.13
2023-01-01T07:18:29.777Z,2.43
2023-01-01T07:22:12.300Z,3.20
2023-01-01T07:25:55.999Z,3.73
2023-01-01T07:29:37.933Z,2.53
2023-01-01T07:33:22.313Z,2.37
2023-01-01T07:37:04.401Z,2.37
2023-01-01T07:40:46.410Z,6.53
2023-01-01T07:44:28.450Z,2.60
2023-01-01T07:48:15.998Z,2.33
2023-01-01T07:51:57.977Z,3.30
2023-01-01T07:55:40.165Z,2.90
2023-01-01T07:59:22.224Z,2.43
2023-01-01T08:03:04.560Z,2.33
2023-01-01T08:06:46.547Z,2.50
2023-01-01T08:10:31.465Z,3.40
2023-01-01T08:14:14.066Z,3.63
2023-01-01T08:17:59.636Z,3.70
2023-01-01T08:21:41.590Z,5.47
2023-01-01T08:25:23.732Z,3.73
2023-01-01T08:29:07.088Z,4.23
2023-01-01T08:32:49.218Z,4.47
2023-01-01T08:36:31.698Z,4.27
2023-01-01T08:40:14.404Z,4.17
2023-01-01T08:43:56.315Z,4.10
2023-01-01T08:47:38.312Z,5.33
2023-01-01T08:51:20.379Z,5.67
2023-01-01T08:55:02.438Z,5.30
2023-01-01T08:58:44.651Z,4.93
2023-01-01T09:02:26.803Z,5.30
2023-01-01T09:06:09.023Z,6.40
2023-01-01T09:09:51.126Z,5.17
2023-01-01T09:13:34.561Z,4.90
2023-01-01T09:17:16.609Z,4.80
2023-01-01T09:20:58.880Z,5.00
2023-01-01T09:24:41.122Z,4.93
2023-01-01T09:28:25.876Z,7.53
2023-01-01T09:32:08.216Z,6.63
2023-01-01T09:35:52.414Z,5.67
2023-01-01T09:39:34.582Z,6.23
2023-01-01T09:43:33.410Z,6.60
2023-01-01T09:47:28.488Z,6.73
2023-01-01T09:51:18.617Z,5.83
2023-01-01T09:55:10.071Z,7.50
2023-01-01T09:58:52.177Z,5.70
2023-01-01T10:02:59.735Z,6.00
2023-01-01T10:06:53.499Z,5.80
2023-01-01T10:10:58.188Z,5.90
2023-01-01T10:14:44.371Z,8.17
2023-01-01T10:18:33.665Z,6.20
2023-01-01T10:22:40.664Z,7.77
2023-01-01T10:30:22.648Z,7.40
2023-01-01T10:34:12.852Z,6.97
2023-01-01T10:37:54.777Z,5.80
2023-01-01T10:41:38.362Z,4.40
2023-01-01T10:45:33.131Z,4.70
2023-01-01T10:49:16.777Z,4.20
2023-01-01T10:53:01.235Z,3.80
2023-01-01T10:56:43.575Z,4.90
2023-01-01T11:00:28.644Z,4.13
2023-01-01T11:04:13.666Z,3.57
2023-01-01T11:07:55.670Z,4.27
2023-01-01T11:11:45.260Z,4.57
2023-01-01T11:15:40.481Z,4.03
2023-01-01T11:19:29.173Z,4.97
2023-01-01T11:23:36.223Z,3.43
2023-01-01T11:31:10.613Z,3.60
2023-01-01T11:35:03.554Z,4.03
2023-01-01T11:38:48.015Z,5.00
2023-01-01T11:42:35.739Z,4.03
2023-01-01T11:46:24.921Z,5.33
2023-01-01T11:50:27.096Z,4.03
2023-01-01T11:54:34.220Z,5.40
2023-01-01T11:58:40.897Z,4.40
2023-01-01T12:02:49.487Z,4.90
2023-01-01T12:06:43.653Z,5.00
2023-01-01T12:10:31.327Z,4.97
2023-01-01T12:14:19.045Z,7.40
2023-01-01T12:18:20.085Z,6.53
2023-01-01T12:22:03.117Z,5.77
2023-01-01T12:25:50.652Z,5.87
2023-01-01T12:29:38.772Z,7.00
2023-01-01T12:33:32.382Z,5.33
2023-01-01T12:37:37.354Z,5.53
2023-01-01T12:41:23.515Z,5.67
2023-01-01T12:45:23.258Z,5.72
2023-01-01T12:49:46.712Z,5.17
2023-01-01T12:53:32.378Z,7.07
2023-01-01T12:57:29.802Z,6.18
2023-01-01T13:01:18.208Z,6.73
2023-01-01T13:05:18.491Z,6.83
2023-01-01T13:09:11.089Z,6.73
2023-01-01T13:12:56.612Z,5.87
2023-01-01T13:16:42.644Z,7.00
2023-01-01T13:20:26.824Z,6.73
2023-01-01T13:24:24.419Z,7.17
2023-01-01T13:28:12.940Z,6.90
2023-01-01T13:32:04.412Z,7.30
2023-01-01T13:35:46.396Z,8.40
2023-01-01T13:40:00.386Z,7.23
2023-01-01T13:43:42.580Z,7.53
2023-01-01T13:48:04.514Z,6.17
2023-01-01T13:52:32.992Z,7.63
2023-01-01T13:56:27.392Z,5.63
2023-01-01T14:00:23.268Z,8.33
2023-01-01T14:04:20.572Z,7.47
2023-01-01T14:08:04.285Z,6.63
2023-01-01T14:11:48.468Z,7.83
2023-01-01T14:15:45.975Z,6.43
2023-01-01T14:19:28.973Z,6.00
2023-01-01T14:23:23.323Z,5.83
2023-01-01T14:27:06.400Z,5.97
2023-01-01T14:30:48.889Z,6.13
2023-01-01T14:34:33.525Z,5.60
2023-01-01T14:38:27.455Z,6.53
2023-01-01T14:42:15.504Z,6.07
2023-01-01T14:45:58.270Z,5.90
2023-01-01T14:49:40.395Z,5.20
2023-01-01T14:53:32.093Z,6.77
2023-01-01T14:57:25.916Z,5.90
2023-01-01T15:01:16.673Z,5.97
2023-01-01T15:04:59.525Z,6.10
2023-01-01T15:08:41.519Z,6.30
2023-01-01T15:12:24.715Z,6.13
2023-01-01T15:16:20.520Z,5.50
2023-01-01T15:20:19.257Z,6.40
2023-01-01T15:24:16.039Z,5.17
2023-01-01T15:27:58.823Z,4.83
2023-01-01T15:31:45.137Z,5.57
2023-01-01T15:39:14.080Z,6.00
2023-01-01T15:42:57.194Z,4.70
2023-01-01T15:46:47.510Z,3.17
2023-01-01T15:51:01.572Z,2.57
2023-01-01T15:54:46.212Z,3.30
2023-01-01T15:58:48.628Z,2.13
2023-01-01T16:02:36.519Z,2.50
2023-01-01T16:06:21.585Z,7.53
2023-01-01T16:10:04.183Z,4.67
2023-01-01T16:13:46.451Z,3.50
2023-01-01T16:17:28.396Z,5.20
2023-01-01T16:21:10.719Z,5.13
2023-01-01T16:24:52.723Z,5.30
2023-01-01T16:28:34.633Z,5.63
2023-01-01T16:32:19.940Z,5.20
2023-01-01T16:36:01.942Z,5.47
2023-01-01T16:39:44.124Z,5.77
2023-01-01T16:43:27.307Z,7.43
2023-01-01T16:47:09.968Z,7.60
2023-01-01T16:50:54.169Z,10.97
2023-01-01T16:54:36.354Z,12.37
2023-01-01T16:58:48.673Z,7.00
2023-01-01T17:02:21.019Z,5.77
2023-01-01T17:06:05.787Z,6.97
2023-01-01T17:09:47.924Z,7.10
2023-01-01T17:13:30.966Z,6.50
2023-01-01T17:17:13.371Z,5.93
2023-01-01T17:20:55.787Z,6.67
2023-01-01T17:24:37.789Z,4.30
2023-01-01T17:28:20.196Z,5.30
2023-01-01T17:32:02.295Z,4.20
2023-01-01T17:35:45.040Z,4.77
2023-01-01T17:39:27.192Z,4.90
2023-01-01T17:43:09.332Z,4.80
2023-01-01T17:46:53.751Z,6.87
2023-01-01T17:50:37.287Z,6.28
2023-01-01T17:54:19.322Z,5.47
2023-01-01T17:58:01.260Z,4.20
2023-01-01T18:01:44.221Z,4.67
2023-01-01T18:05:27.326Z,5.67
2023-01-01T18:09:12.117Z,26.13
2023-01-01T18:12:55.838Z,7.67
2023-01-01T18:16:39.524Z,6.27
2023-01-01T18:20:21.830Z,6.40
2023-01-01T18:24:07.073Z,5.97
2023-01-01T18:27:57.190Z,6.10
2023-01-01T18:31:40.155Z,4.33
2023-01-01T18:35:22.210Z,7.93
2023-01-01T18:39:16.967Z,5.10
2023-01-01T18:43:08.596Z,9.43
2023-01-01T18:47:05.421Z,8.47
2023-01-01T18:54:30.977Z,7.10
2023-01-01T18:58:24.358Z,8.90
2023-01-01T19:02:36.756Z,6.80
2023-01-01T19:06:32.120Z,6.70
2023-01-01T19:10:16.060Z,6.60
2023-01-01T19:14:08.412Z,5.53
2023-01-01T19:17:52.691Z,4.40
2023-01-01T19:21:34.778Z,4.30
2023-01-01T19:25:38.897Z,7.80
2023-01-01T19:29:23.184Z,5.57
2023-01-01T19:33:06.561Z,5.23
2023-01-01T19:36:48.817Z,6.70
2023-01-01T19:40:30.899Z,5.70
2023-01-01T19:44:12.926Z,7.23
2023-01-01T19:47:54.995Z,6.20
2023-01-01T19:51:37.135Z,5.57
2023-01-01T19:55:19.333Z,6.30
2023-01-01T19:59:01.523Z,7.77
2023-01-01T20:02:46.965Z,7.03
2023-01-01T20:06:30.574Z,7.50
2023-01-01T20:10:13.075Z,6.23
2023-01-01T20:13:55.083Z,7.30
2023-01-01T20:17:37.150Z,6.20
2023-01-01T20:21:38.734Z,6.80
2023-01-01T20:25:20.952Z,5.77
2023-01-01T20:29:21.104Z,6.43
2023-01-01T20:33:03.613Z,5.90
2023-01-01T20:37:04.685Z,5.90
2023-01-01T20:40:46.823Z,6.17
2023-01-01T20:44:29.426Z,6.60
2023-01-01T20:48:17.849Z,6.73
2023-01-01T20:52:01.680Z,7.27
2023-01-01T20:55:46.748Z,5.70
2023-01-01T20:59:35.748Z,4.73
2023-01-01T21:03:19.252Z,5.83
2023-01-01T21:07:01.299Z,6.33
2023-01-01T21:10:43.476Z,5.43
2023-01-01T21:14:25.623Z,5.23
2023-01-01T21:18:11.274Z,4.47
2023-01-01T21:21:56.066Z,3.17
2023-01-01T21:25:50.944Z,4.63
2023-01-01T21:29:33.973Z,6.13
2023-01-01T21:33:25.898Z,5.43
2023-01-01T21:37:37.309Z,4.33
2023-01-01T21:41:31.281Z,3.50
2023-01-01T21:45:31.927Z,4.33
2023-01-01T21:49:29.470Z,3.93
2023-01-01T21:53:36.175Z,2.83
2023-01-01T21:57:21.414Z,3.58
2023-01-01T22:01:27.657Z,3.57
2023-01-01T22:05:29.647Z,3.70
2023-01-01T22:09:41.927Z,3.73
2023-01-01T22:13:24.910Z,3.93
2023-01-01T22:17:33.392Z,3.20
2023-01-01T22:21:19.137Z,3.80
2023-01-01T22:25:15.358Z,3.67
2023-01-01T22:29:03.719Z,3.33
2023-01-01T22:32:56.074Z,3.20
2023-01-01T22:36:39.901Z,2.93
2023-01-01T22:40:29.539Z,3.37
2023-01-01T22:44:12.501Z,3.50
2023-01-01T22:47:55.244Z,3.63
2023-01-01T22:51:42.728Z,3.37
2023-01-01T22:55:25.324Z,3.57
2023-01-01T22:59:07.825Z,2.70
2023-01-01T23:02:49.951Z,3.60
2023-01-01T23:06:33.118Z,3.07
2023-01-01T23:10:15.545Z,3.67
2023-01-01T23:14:15.915Z,3.57
2023-01-01T23:17:57.968Z,3.43
2023-01-01T23:21:44.788Z,4.90
2023-01-01T23:25:29.098Z,3.30
2023-01-01T23:29:12.096Z,3.17
2023-01-01T23:32:54.145Z,3.73
2023-01-01T23:36:37.572Z,3.50
2023-01-01T23:40:19.701Z,3.40
2023-01-01T23:44:01.580Z,3.10
2023-01-01T23:47:43.716Z,3.43
2023-01-01T23:51:28.925Z,2.77
2023-01-01T23:55:10.908Z,3.30
2023-01-01T23:58:53.002Z,3.70
